createdAt,value
2022-08-28T00:03:50.189Z,18.30
2022-08-28T00:08:53.913Z,24.00
2022-08-28T00:13:59.409Z,21.20
2022-08-28T00:19:03.843Z,31.10
2022-08-28T00:24:08.726Z,17.70
2022-08-28T00:29:13.237Z,22.40
2022-08-28T00:34:18.457Z,27.40
2022-08-28T00:39:31.720Z,36.90
2022-08-28T00:44:37.455Z,23.80
2022-08-28T00:49:50.486Z,16.40
2022-08-28T00:55:02.552Z,17.00
2022-08-28T01:00:13.356Z,20.70
2022-08-28T01:05:18.171Z,20.70
2022-08-28T01:10:25.002Z,22.10
2022-08-28T01:15:34.413Z,14.80
2022-08-28T01:20:52.210Z,16.70
2022-08-28T01:26:01.485Z,16.20
2022-08-28T01:31:17.371Z,15.70
2022-08-28T01:36:22.938Z,17.60
2022-08-28T01:41:27.191Z,17.90
2022-08-28T01:46:32.133Z,17.40
2022-08-28T01:51:38.189Z,17.50
2022-08-28T01:56:44.943Z,18.50
2022-08-28T02:01:49.947Z,16.10
2022-08-28T02:06:54.471Z,14.80
2022-08-28T02:11:59.609Z,25.10
2022-08-28T02:17:03.489Z,19.20
2022-08-28T02:22:10.202Z,16.40
2022-08-28T02:27:14.714Z,17.10
2022-08-28T02:32:20.127Z,16.60
2022-08-28T02:37:25.208Z,15.90
2022-08-28T02:42:29.985Z,13.00
2022-08-28T02:47:36.590Z,15.90
2022-08-28T02:52:44.919Z,18.90
2022-08-28T02:57:49.717Z,13.90
2022-08-28T03:02:57.279Z,18.50
2022-08-28T03:08:00.984Z,13.70
2022-08-28T03:13:06.773Z,14.40
2022-08-28T03:18:12.814Z,15.80
2022-08-28T03:23:28.842Z,13.20
2022-08-28T03:28:42.636Z,11.60
2022-08-28T03:33:49.006Z,14.00
2022-08-28T03:38:55.031Z,11.60
2022-08-28T03:44:01.906Z,8.40
2022-08-28T03:49:08.045Z,15.20
2022-08-28T03:54:12.731Z,15.60
2022-08-28T03:59:17.126Z,9.60
2022-08-28T04:04:21.603Z,11.00
2022-08-28T04:09:26.261Z,11.20
2022-08-28T04:14:31.165Z,11.40
2022-08-28T04:19:36.375Z,8.80
2022-08-28T04:24:40.966Z,12.90
2022-08-28T04:29:46.014Z,13.80
2022-08-28T04:34:51.581Z,11.90
2022-08-28T04:39:55.950Z,9.90
2022-08-28T04:45:00.341Z,11.70
2022-08-28T04:50:06.490Z,8.00
2022-08-28T04:55:11.338Z,15.80
2022-08-28T05:00:15.952Z,10.10
2022-08-28T05:05:19.473Z,9.40
2022-08-28T05:15:32.382Z,9.90
2022-08-28T05:20:42.767Z,10.80
2022-08-28T05:25:48.920Z,8.90
2022-08-28T05:30:52.739Z,9.60
2022-08-28T05:35:56.646Z,8.90
2022-08-28T05:41:01.747Z,9.40
2022-08-28T05:46:11.050Z,14.40
2022-08-28T05:51:19.260Z,8.20
2022-08-28T05:56:26.967Z,10.30
2022-08-28T06:01:34.523Z,12.90
2022-08-28T06:06:40.074Z,16.20
2022-08-28T06:11:46.407Z,12.40
2022-08-28T06:16:55.060Z,13.00
2022-08-28T06:22:04.416Z,11.80
2022-08-28T06:27:12.524Z,12.70
2022-08-28T06:32:17.174Z,13.40
2022-08-28T06:37:21.424Z,14.20
2022-08-28T06:42:26.923Z,13.20
2022-08-28T06:47:32.121Z,20.30
2022-08-28T06:52:36.181Z,14.10
2022-08-28T06:57:43.452Z,14.20
2022-08-28T07:02:48.156Z,14.80
2022-08-28T07:07:52.343Z,13.30
2022-08-28T07:12:57.081Z,10.60
2022-08-28T07:18:02.183Z,13.70
2022-08-28T07:23:07.571Z,13.60
2022-08-28T07:28:13.107Z,16.40
2022-08-28T07:38:26.332Z,16.20
2022-08-28T07:43:50.031Z,13.10
2022-08-28T07:48:55.927Z,13.90
2022-08-28T07:54:00.839Z,13.90
2022-08-28T07:59:05.547Z,12.10
2022-08-28T08:04:15.287Z,15.00
2022-08-28T08:09:21.197Z,13.40
2022-08-28T08:14:29.799Z,14.90
2022-08-28T08:19:34.779Z,15.50
2022-08-28T08:24:40.714Z,13.70
2022-08-28T08:29:44.943Z,13.60
2022-08-28T08:34:49.810Z,15.10
2022-08-28T08:39:55.688Z,13.30
2022-08-28T08:45:04.838Z,16.20
2022-08-28T08:50:31.106Z,13.10
2022-08-28T08:55:42.423Z,19.20
2022-08-28T09:01:08.979Z,16.80
2022-08-28T09:06:24.830Z,15.70
2022-08-28T09:11:51.081Z,18.90
2022-08-28T09:17:02.089Z,18.90
2022-08-28T09:22:06.065Z,17.30
2022-08-28T09:27:27.580Z,18.10
2022-08-28T09:32:49.025Z,15.20
2022-08-28T09:37:54.000Z,16.40
2022-08-28T09:43:28.300Z,14.90
2022-08-28T09:48:36.628Z,15.30
2022-08-28T09:53:52.381Z,15.20
2022-08-28T09:59:18.759Z,18.00
2022-08-28T10:04:48.376Z,14.60
2022-08-28T10:10:11.010Z,14.40
2022-08-28T10:15:38.021Z,15.70
2022-08-28T10:21:11.405Z,14.80
2022-08-28T10:26:24.861Z,13.70
2022-08-28T10:31:48.045Z,12.20
2022-08-28T10:37:20.154Z,17.30
2022-08-28T10:42:38.302Z,10.20
2022-08-28T10:47:47.999Z,14.50
2022-08-28T10:53:00.710Z,17.50
2022-08-28T10:58:23.975Z,15.60
2022-08-28T11:03:39.223Z,15.60
2022-08-28T11:08:55.156Z,18.50
2022-08-28T11:14:01.891Z,15.80
2022-08-28T11:19:19.363Z,18.50
2022-08-28T11:24:50.229Z,17.60
2022-08-28T11:30:30.360Z,23.60
2022-08-28T11:35:41.151Z,20.60
2022-08-28T11:40:45.551Z,24.40
2022-08-28T11:45:55.592Z,20.00
2022-08-28T11:51:26.859Z,20.10
2022-08-28T11:56:52.567Z,18.40
2022-08-28T12:01:57.884Z,16.10
2022-08-28T12:07:24.305Z,17.00
2022-08-28T12:12:47.631Z,18.70
2022-08-28T12:17:54.090Z,19.80
2022-08-28T12:23:02.547Z,21.60
2022-08-28T12:28:32.516Z,17.80
2022-08-28T12:34:02.026Z,18.30
2022-08-28T12:39:19.283Z,20.60
2022-08-28T12:44:34.298Z,21.10
2022-08-28T12:49:39.162Z,30.70
2022-08-28T12:54:45.064Z,20.30
2022-08-28T12:59:54.892Z,16.60
2022-08-28T13:05:23.429Z,18.50
2022-08-28T13:10:33.491Z,19.40
2022-08-28T13:15:51.722Z,18.00
2022-08-28T13:21:33.280Z,17.70
2022-08-28T13:26:39.160Z,15.10
2022-08-28T13:31:45.275Z,20.50
2022-08-28T13:36:58.594Z,21.50
2022-08-28T13:42:11.917Z,20.10
2022-08-28T13:47:16.184Z,20.50
2022-08-28T13:52:23.082Z,24.50
2022-08-28T13:57:30.452Z,21.30
2022-08-28T14:02:56.554Z,19.90
2022-08-28T14:08:00.941Z,19.00
2022-08-28T14:13:05.224Z,24.90
2022-08-28T14:18:09.722Z,23.40
2022-08-28T14:23:14.120Z,20.00
2022-08-28T14:28:18.458Z,18.60
2022-08-28T14:33:22.724Z,20.70
2022-08-28T14:38:26.899Z,18.20
2022-08-28T14:43:32.008Z,21.40
2022-08-28T14:48:35.588Z,21.50
2022-08-28T14:53:39.743Z,22.10
2022-08-28T14:58:43.907Z,18.60
2022-08-28T15:03:48.227Z,23.70
2022-08-28T15:08:54.803Z,23.10
2022-08-28T15:13:59.796Z,23.40
2022-08-28T15:19:07.803Z,25.70
2022-08-28T15:24:12.248Z,27.80
2022-08-28T15:29:16.182Z,28.60
2022-08-28T15:34:24.499Z,37.30
2022-08-28T15:39:47.917Z,27.90
2022-08-28T15:44:53.077Z,29.30
2022-08-28T15:49:58.266Z,29.70
2022-08-28T15:55:02.975Z,42.00
2022-08-28T16:00:12.276Z,27.90
2022-08-28T16:05:17.310Z,32.30
2022-08-28T16:10:22.759Z,30.80
2022-08-28T16:15:27.217Z,16.90
2022-08-28T16:20:31.338Z,13.10
2022-08-28T16:25:36.999Z,9.80
2022-08-28T16:30:43.872Z,12.10
2022-08-28T16:35:56.134Z,10.60
2022-08-28T16:40:59.826Z,16.20
2022-08-28T16:46:04.408Z,12.60
2022-08-28T16:51:11.098Z,15.00
2022-08-28T16:56:22.159Z,13.40
2022-08-28T17:01:30.101Z,9.20
2022-08-28T17:06:35.834Z,8.20
2022-08-28T17:11:40.928Z,7.80
2022-08-28T17:16:45.983Z,9.80
2022-08-28T17:22:08.423Z,4.50
2022-08-28T17:27:12.716Z,6.70
2022-08-28T17:32:19.246Z,8.70
2022-08-28T17:37:24.801Z,5.90
2022-08-28T17:42:30.098Z,4.40
2022-08-28T17:47:34.658Z,7.50
2022-08-28T17:52:41.538Z,4.80
2022-08-28T17:57:47.377Z,10.60
2022-08-28T18:02:52.929Z,6.70
2022-08-28T18:08:00.171Z,7.10
2022-08-28T18:13:07.045Z,7.50
2022-08-28T18:18:15.584Z,10.20
2022-08-28T18:23:20.160Z,6.40
2022-08-28T18:28:26.933Z,16.60
2022-08-28T18:33:31.525Z,7.70
2022-08-28T18:38:36.249Z,10.50
2022-08-28T18:43:41.449Z,5.80
2022-08-28T18:48:45.918Z,5.70
2022-08-28T18:53:50.564Z,10.70
2022-08-28T18:58:55.607Z,11.70
2022-08-28T19:04:00.422Z,7.10
2022-08-28T19:09:06.034Z,8.20
2022-08-28T19:14:10.731Z,6.60
2022-08-28T19:19:15.995Z,8.50
2022-08-28T19:24:23.093Z,6.50
2022-08-28T19:29:28.368Z,14.70
2022-08-28T19:34:33.062Z,8.70
2022-08-28T19:39:37.317Z,6.40
2022-08-28T19:44:41.401Z,5.80
2022-08-28T19:49:45.736Z,8.00
2022-08-28T19:54:50.101Z,12.40
2022-08-28T19:59:54.360Z,8.20
2022-08-28T20:04:59.804Z,8.10
2022-08-28T20:10:04.774Z,9.00
2022-08-28T20:15:10.077Z,9.50
2022-08-28T20:20:19.939Z,7.90
2022-08-28T20:25:24.984Z,8.60
2022-08-28T20:30:30.089Z,9.40
2022-08-28T20:35:35.786Z,10.10
2022-08-28T20:40:40.354Z,11.30
2022-08-28T20:45:44.362Z,14.30
2022-08-28T20:50:48.592Z,10.60
2022-08-28T20:55:59.983Z,13.90
2022-08-28T21:01:05.773Z,8.90
2022-08-28T21:06:10.990Z,7.40
2022-08-28T21:11:14.903Z,6.90
2022-08-28T21:16:20.381Z,11.10
2022-08-28T21:21:25.716Z,4.90
2022-08-28T21:26:30.610Z,5.80
2022-08-28T21:31:35.451Z,7.60
2022-08-28T21:36:46.904Z,5.40
2022-08-28T21:41:55.267Z,6.00
2022-08-28T21:46:59.378Z,7.10
2022-08-28T21:52:03.426Z,6.70
2022-08-28T21:57:08.733Z,14.50
2022-08-28T22:02:12.941Z,8.10
2022-08-28T22:07:17.722Z,10.70
2022-08-28T22:12:21.205Z,7.00
2022-08-28T22:17:26.735Z,7.50
2022-08-28T22:22:53.510Z,7.90
2022-08-28T22:33:02.948Z,8.10
2022-08-28T22:38:07.843Z,8.30
2022-08-28T22:43:13.274Z,7.90
2022-08-28T22:48:18.351Z,9.50
2022-08-28T22:53:23.250Z,7.00
2022-08-28T22:58:30.201Z,6.70
2022-08-28T23:03:35.510Z,6.50
2022-08-28T23:08:40.231Z,8.40
2022-08-28T23:13:45.013Z,6.30
2022-08-28T23:19:07.347Z,7.50
2022-08-28T23:24:19.954Z,5.20
2022-08-28T23:29:25.144Z,5.60
2022-08-28T23:34:37.188Z,6.10
2022-08-28T23:39:43.141Z,5.30
2022-08-28T23:44:48.977Z,4.00
2022-08-28T23:49:53.821Z,4.10
2022-08-28T23:54:57.797Z,3.70
